Terminal Aerodrome Forecast
Issued by NWS

Home | Current Version | Previous Version | Text Only | Print | Product List | Glossary On
Versions: 1 2 3 4 5 6 7 8 9 10 11 12 13 14
000
FTUS43 KJKL 280557
TAFSJS
TAF
KSJS 280557Z 2806/2906 17004KT P6SM SCT100
     FM281400 22004KT P6SM SCT050
     FM282100 24004KT P6SM VCTS BKN040CB
     FM290100 VRB03KT P6SM SCT040=

USA.gov is the U.S. government's official web portal to all federal, state and local government web resources and services.